sensor_id;sensor_type;location;lat;lon;timestamp;P1;durP1;ratioP1;P2;durP2;ratioP2
64667;SDS011;51077;42.716;23.344;2023-08-24T00:01:14;11.20;;;7.07;;
64667;SDS011;51077;42.716;23.344;2023-08-24T00:03:41;7.70;;;6.68;;
64667;SDS011;51077;42.716;23.344;2023-08-24T00:06:08;9.50;;;8.15;;
64667;SDS011;51077;42.716;23.344;2023-08-24T00:08:34;8.20;;;7.40;;
64667;SDS011;51077;42.716;23.344;2023-08-24T00:10:59;8.43;;;7.37;;
64667;SDS011;51077;42.716;23.344;2023-08-24T00:13:25;11.93;;;7.63;;
64667;SDS011;51077;42.716;23.344;2023-08-24T00:15:52;9.47;;;8.27;;
64667;SDS011;51077;42.716;23.344;2023-08-24T00:18:19;8.57;;;7.63;;
64667;SDS011;51077;42.716;23.344;2023-08-24T00:20:46;9.50;;;7.40;;
64667;SDS011;51077;42.716;23.344;2023-08-24T00:23:12;10.97;;;8.13;;
64667;SDS011;51077;42.716;23.344;2023-08-24T00:25:38;8.63;;;7.73;;
64667;SDS011;51077;42.716;23.344;2023-08-24T00:28:06;10.88;;;7.75;;
64667;SDS011;51077;42.716;23.344;2023-08-24T00:30:31;9.40;;;7.93;;
64667;SDS011;51077;42.716;23.344;2023-08-24T00:32:56;8.43;;;7.00;;
64667;SDS011;51077;42.716;23.344;2023-08-24T00:35:22;9.93;;;7.80;;
64667;SDS011;51077;42.716;23.344;2023-08-24T00:37:47;9.60;;;7.57;;
64667;SDS011;51077;42.716;23.344;2023-08-24T00:40:13;9.03;;;7.43;;
64667;SDS011;51077;42.716;23.344;2023-08-24T00:42:38;8.37;;;7.47;;
64667;SDS011;51077;42.716;23.344;2023-08-24T00:45:06;10.32;;;8.38;;
64667;SDS011;51077;42.716;23.344;2023-08-24T00:47:32;8.68;;;7.72;;
64667;SDS011;51077;42.716;23.344;2023-08-24T00:50:01;9.48;;;8.15;;
64667;SDS011;51077;42.716;23.344;2023-08-24T00:52:29;9.30;;;8.15;;
64667;SDS011;51077;42.716;23.344;2023-08-24T00:54:57;10.60;;;8.30;;
64667;SDS011;51077;42.716;23.344;2023-08-24T00:57:24;9.73;;;8.27;;
64667;SDS011;51077;42.716;23.344;2023-08-24T00:59:50;10.73;;;8.70;;
64667;SDS011;51077;42.716;23.344;2023-08-24T01:02:16;11.17;;;8.93;;
64667;SDS011;51077;42.716;23.344;2023-08-24T01:04:41;11.90;;;9.40;;
64667;SDS011;51077;42.716;23.344;2023-08-24T01:07:10;12.32;;;8.82;;
64667;SDS011;51077;42.716;23.344;2023-08-24T01:09:36;11.20;;;9.40;;
64667;SDS011;51077;42.716;23.344;2023-08-24T01:12:05;12.10;;;9.13;;
64667;SDS011;51077;42.716;23.344;2023-08-24T01:17:46;13.48;;;9.13;;
64667;SDS011;51077;42.716;23.344;2023-08-24T01:20:12;11.93;;;9.48;;
64667;SDS011;51077;42.716;23.344;2023-08-24T01:22:57;11.82;;;9.45;;
64667;SDS011;51077;42.716;23.344;2023-08-24T01:25:34;12.73;;;9.05;;
64667;SDS011;51077;42.716;23.344;2023-08-24T01:28:06;14.40;;;9.73;;
64667;SDS011;51077;42.716;23.344;2023-08-24T01:30:34;12.88;;;10.40;;
64667;SDS011;51077;42.716;23.344;2023-08-24T01:33:03;14.50;;;9.95;;
64667;SDS011;51077;42.716;23.344;2023-08-24T01:35:30;13.32;;;10.57;;
64667;SDS011;51077;42.716;23.344;2023-08-24T01:37:55;12.60;;;10.35;;
64667;SDS011;51077;42.716;23.344;2023-08-24T01:40:26;13.20;;;10.10;;
64667;SDS011;51077;42.716;23.344;2023-08-24T01:43:01;12.20;;;9.82;;
64667;SDS011;51077;42.716;23.344;2023-08-24T01:45:29;15.63;;;10.73;;
64667;SDS011;51077;42.716;23.344;2023-08-24T01:47:56;12.52;;;10.75;;
64667;SDS011;51077;42.716;23.344;2023-08-24T01:50:24;14.55;;;10.38;;
64667;SDS011;51077;42.716;23.344;2023-08-24T01:52:50;12.52;;;9.63;;
64667;SDS011;51077;42.716;23.344;2023-08-24T01:55:19;12.80;;;9.60;;
64667;SDS011;51077;42.716;23.344;2023-08-24T01:57:45;12.93;;;10.00;;
64667;SDS011;51077;42.716;23.344;2023-08-24T02:00:11;12.73;;;9.90;;
64667;SDS011;51077;42.716;23.344;2023-08-24T02:02:36;13.37;;;9.93;;
64667;SDS011;51077;42.716;23.344;2023-08-24T02:05:02;12.00;;;9.97;;
64667;SDS011;51077;42.716;23.344;2023-08-24T02:07:28;11.50;;;9.30;;
64667;SDS011;51077;42.716;23.344;2023-08-24T02:09:54;12.87;;;9.40;;
64667;SDS011;51077;42.716;23.344;2023-08-24T02:12:19;14.00;;;9.70;;
64667;SDS011;51077;42.716;23.344;2023-08-24T02:14:44;16.33;;;9.23;;
64667;SDS011;51077;42.716;23.344;2023-08-24T02:17:10;15.67;;;9.90;;
64667;SDS011;51077;42.716;23.344;2023-08-24T02:19:35;12.57;;;8.93;;
64667;SDS011;51077;42.716;23.344;2023-08-24T02:22:01;14.80;;;9.43;;
64667;SDS011;51077;42.716;23.344;2023-08-24T02:24:26;14.97;;;9.33;;
64667;SDS011;51077;42.716;23.344;2023-08-24T02:26:52;12.27;;;9.33;;
64667;SDS011;51077;42.716;23.344;2023-08-24T02:29:18;13.40;;;9.97;;
64667;SDS011;51077;42.716;23.344;2023-08-24T02:31:43;14.83;;;9.30;;
64667;SDS011;51077;42.716;23.344;2023-08-24T02:34:08;13.77;;;9.23;;
64667;SDS011;51077;42.716;23.344;2023-08-24T02:36:34;15.10;;;10.17;;
64667;SDS011;51077;42.716;23.344;2023-08-24T02:39:00;11.10;;;8.93;;
64667;SDS011;51077;42.716;23.344;2023-08-24T02:41:26;13.13;;;9.40;;
64667;SDS011;51077;42.716;23.344;2023-08-24T02:43:51;12.80;;;10.15;;
64667;SDS011;51077;42.716;23.344;2023-08-24T02:46:16;14.10;;;9.87;;
64667;SDS011;51077;42.716;23.344;2023-08-24T02:48:43;12.48;;;9.82;;
64667;SDS011;51077;42.716;23.344;2023-08-24T02:51:09;12.93;;;9.20;;
64667;SDS011;51077;42.716;23.344;2023-08-24T02:53:35;15.07;;;9.93;;
64667;SDS011;51077;42.716;23.344;2023-08-24T02:56:01;12.70;;;9.52;;
64667;SDS011;51077;42.716;23.344;2023-08-24T02:58:27;11.23;;;9.30;;
64667;SDS011;51077;42.716;23.344;2023-08-24T03:00:53;10.97;;;9.53;;
64667;SDS011;51077;42.716;23.344;2023-08-24T03:03:18;15.63;;;9.93;;
64667;SDS011;51077;42.716;23.344;2023-08-24T03:06:00;13.37;;;9.23;;
64667;SDS011;51077;42.716;23.344;2023-08-24T03:08:28;13.43;;;9.57;;
64667;SDS011;51077;42.716;23.344;2023-08-24T03:10:54;13.85;;;10.30;;
64667;SDS011;51077;42.716;23.344;2023-08-24T03:13:20;14.23;;;9.90;;
64667;SDS011;51077;42.716;23.344;2023-08-24T03:15:45;14.93;;;9.43;;
64667;SDS011;51077;42.716;23.344;2023-08-24T03:18:11;12.27;;;9.87;;
64667;SDS011;51077;42.716;23.344;2023-08-24T03:20:38;12.55;;;9.63;;
64667;SDS011;51077;42.716;23.344;2023-08-24T03:23:03;13.50;;;9.70;;
64667;SDS011;51077;42.716;23.344;2023-08-24T03:25:29;11.43;;;9.50;;
64667;SDS011;51077;42.716;23.344;2023-08-24T03:27:55;12.70;;;9.90;;
64667;SDS011;51077;42.716;23.344;2023-08-24T03:30:21;13.47;;;9.83;;
64667;SDS011;51077;42.716;23.344;2023-08-24T03:32:47;10.80;;;9.48;;
64667;SDS011;51077;42.716;23.344;2023-08-24T03:35:13;11.20;;;8.97;;
64667;SDS011;51077;42.716;23.344;2023-08-24T03:37:39;11.25;;;9.63;;
64667;SDS011;51077;42.716;23.344;2023-08-24T03:40:05;13.33;;;9.50;;
64667;SDS011;51077;42.716;23.344;2023-08-24T03:42:31;12.10;;;9.45;;
64667;SDS011;51077;42.716;23.344;2023-08-24T03:44:58;12.40;;;9.70;;
64667;SDS011;51077;42.716;23.344;2023-08-24T03:47:24;12.45;;;9.40;;
64667;SDS011;51077;42.716;23.344;2023-08-24T03:49:50;9.47;;;8.47;;
64667;SDS011;51077;42.716;23.344;2023-08-24T03:52:15;10.93;;;8.70;;
64667;SDS011;51077;42.716;23.344;2023-08-24T03:54:41;12.87;;;9.23;;
64667;SDS011;51077;42.716;23.344;2023-08-24T03:57:06;12.90;;;9.73;;
64667;SDS011;51077;42.716;23.344;2023-08-24T03:59:31;10.47;;;8.33;;
64667;SDS011;51077;42.716;23.344;2023-08-24T04:01:57;12.03;;;8.30;;
64667;SDS011;51077;42.716;23.344;2023-08-24T04:04:26;13.65;;;9.40;;
64667;SDS011;51077;42.716;23.344;2023-08-24T04:06:52;13.77;;;9.20;;
64667;SDS011;51077;42.716;23.344;2023-08-24T04:09:17;12.07;;;9.63;;
64667;SDS011;51077;42.716;23.344;2023-08-24T04:11:43;11.40;;;8.77;;
64667;SDS011;51077;42.716;23.344;2023-08-24T04:14:09;12.73;;;10.87;;
64667;SDS011;51077;42.716;23.344;2023-08-24T04:16:34;13.30;;;9.73;;
64667;SDS011;51077;42.716;23.344;2023-08-24T04:18:59;11.97;;;9.73;;
64667;SDS011;51077;42.716;23.344;2023-08-24T04:21:25;11.30;;;8.80;;
64667;SDS011;51077;42.716;23.344;2023-08-24T04:23:50;14.13;;;9.10;;
64667;SDS011;51077;42.716;23.344;2023-08-24T04:26:16;13.23;;;9.07;;
64667;SDS011;51077;42.716;23.344;2023-08-24T04:28:41;14.30;;;9.23;;
64667;SDS011;51077;42.716;23.344;2023-08-24T04:31:08;13.95;;;10.23;;
64667;SDS011;51077;42.716;23.344;2023-08-24T04:33:33;11.00;;;9.53;;
64667;SDS011;51077;42.716;23.344;2023-08-24T04:35:59;11.10;;;9.43;;
64667;SDS011;51077;42.716;23.344;2023-08-24T04:38:24;13.10;;;9.13;;
64667;SDS011;51077;42.716;23.344;2023-08-24T04:40:50;11.60;;;9.20;;
64667;SDS011;51077;42.716;23.344;2023-08-24T04:43:17;11.73;;;8.85;;
64667;SDS011;51077;42.716;23.344;2023-08-24T04:45:47;10.98;;;9.27;;
64667;SDS011;51077;42.716;23.344;2023-08-24T04:48:14;12.80;;;9.63;;
64667;SDS011;51077;42.716;23.344;2023-08-24T04:50:41;11.43;;;9.93;;
64667;SDS011;51077;42.716;23.344;2023-08-24T04:53:07;14.30;;;9.68;;
64667;SDS011;51077;42.716;23.344;2023-08-24T04:55:33;14.30;;;10.50;;
64667;SDS011;51077;42.716;23.344;2023-08-24T04:57:58;14.43;;;10.10;;
64667;SDS011;51077;42.716;23.344;2023-08-24T05:00:23;11.73;;;10.10;;
64667;SDS011;51077;42.716;23.344;2023-08-24T05:02:49;15.47;;;10.20;;
64667;SDS011;51077;42.716;23.344;2023-08-24T05:05:14;14.60;;;10.63;;
64667;SDS011;51077;42.716;23.344;2023-08-24T05:07:40;13.77;;;10.03;;
64667;SDS011;51077;42.716;23.344;2023-08-24T05:10:06;10.70;;;9.40;;
64667;SDS011;51077;42.716;23.344;2023-08-24T05:12:32;15.23;;;10.95;;
64667;SDS011;51077;42.716;23.344;2023-08-24T05:15:00;15.43;;;11.02;;
64667;SDS011;51077;42.716;23.344;2023-08-24T05:17:29;15.95;;;11.52;;
64667;SDS011;51077;42.716;23.344;2023-08-24T05:19:56;12.50;;;10.98;;
64667;SDS011;51077;42.716;23.344;2023-08-24T05:22:22;13.30;;;10.83;;
64667;SDS011;51077;42.716;23.344;2023-08-24T05:24:47;13.50;;;11.40;;
64667;SDS011;51077;42.716;23.344;2023-08-24T05:27:13;12.50;;;10.50;;
64667;SDS011;51077;42.716;23.344;2023-08-24T05:29:38;14.23;;;10.60;;
64667;SDS011;51077;42.716;23.344;2023-08-24T05:32:04;14.77;;;10.67;;
64667;SDS011;51077;42.716;23.344;2023-08-24T05:34:29;14.90;;;10.27;;
64667;SDS011;51077;42.716;23.344;2023-08-24T05:36:55;13.57;;;10.63;;
64667;SDS011;51077;42.716;23.344;2023-08-24T05:39:20;13.43;;;10.00;;
64667;SDS011;51077;42.716;23.344;2023-08-24T05:41:45;11.77;;;9.40;;
64667;SDS011;51077;42.716;23.344;2023-08-24T05:44:11;11.67;;;9.83;;
64667;SDS011;51077;42.716;23.344;2023-08-24T05:46:36;11.97;;;10.07;;
64667;SDS011;51077;42.716;23.344;2023-08-24T05:49:01;13.47;;;9.73;;
64667;SDS011;51077;42.716;23.344;2023-08-24T05:51:27;15.60;;;10.23;;
64667;SDS011;51077;42.716;23.344;2023-08-24T05:53:53;13.23;;;9.30;;
64667;SDS011;51077;42.716;23.344;2023-08-24T05:56:24;15.85;;;10.43;;
64667;SDS011;51077;42.716;23.344;2023-08-24T05:58:49;12.13;;;9.35;;
64667;SDS011;51077;42.716;23.344;2023-08-24T06:01:15;16.23;;;10.35;;
64667;SDS011;51077;42.716;23.344;2023-08-24T06:03:41;15.60;;;9.83;;
64667;SDS011;51077;42.716;23.344;2023-08-24T06:06:06;16.37;;;10.13;;
64667;SDS011;51077;42.716;23.344;2023-08-24T06:08:34;14.68;;;10.30;;
64667;SDS011;51077;42.716;23.344;2023-08-24T06:10:59;14.93;;;10.67;;
64667;SDS011;51077;42.716;23.344;2023-08-24T06:13:25;14.57;;;9.30;;
64667;SDS011;51077;42.716;23.344;2023-08-24T06:15:50;11.57;;;9.70;;
64667;SDS011;51077;42.716;23.344;2023-08-24T06:18:16;13.20;;;9.90;;
64667;SDS011;51077;42.716;23.344;2023-08-24T06:20:41;15.43;;;9.60;;
64667;SDS011;51077;42.716;23.344;2023-08-24T06:23:06;11.87;;;9.70;;
64667;SDS011;51077;42.716;23.344;2023-08-24T06:25:32;16.57;;;9.50;;
64667;SDS011;51077;42.716;23.344;2023-08-24T06:27:58;10.60;;;9.07;;
64667;SDS011;51077;42.716;23.344;2023-08-24T06:30:27;10.67;;;9.03;;
64667;SDS011;51077;42.716;23.344;2023-08-24T06:32:52;12.50;;;9.27;;
64667;SDS011;51077;42.716;23.344;2023-08-24T06:35:18;10.10;;;8.90;;
64667;SDS011;51077;42.716;23.344;2023-08-24T06:37:43;12.20;;;8.80;;
64667;SDS011;51077;42.716;23.344;2023-08-24T06:40:09;10.37;;;9.03;;
64667;SDS011;51077;42.716;23.344;2023-08-24T06:42:34;9.93;;;8.57;;
64667;SDS011;51077;42.716;23.344;2023-08-24T06:45:00;11.57;;;8.77;;
64667;SDS011;51077;42.716;23.344;2023-08-24T06:47:25;13.13;;;8.37;;
64667;SDS011;51077;42.716;23.344;2023-08-24T06:49:51;11.83;;;9.20;;
64667;SDS011;51077;42.716;23.344;2023-08-24T06:52:16;11.00;;;8.57;;
64667;SDS011;51077;42.716;23.344;2023-08-24T06:54:42;9.60;;;8.27;;
64667;SDS011;51077;42.716;23.344;2023-08-24T06:57:07;10.57;;;8.27;;
64667;SDS011;51077;42.716;23.344;2023-08-24T06:59:33;12.80;;;8.83;;
64667;SDS011;51077;42.716;23.344;2023-08-24T07:01:58;13.97;;;8.97;;
64667;SDS011;51077;42.716;23.344;2023-08-24T07:04:24;8.73;;;7.83;;
64667;SDS011;51077;42.716;23.344;2023-08-24T07:06:51;11.52;;;8.55;;
64667;SDS011;51077;42.716;23.344;2023-08-24T07:09:16;9.57;;;7.90;;
64667;SDS011;51077;42.716;23.344;2023-08-24T07:11:43;12.25;;;9.52;;
64667;SDS011;51077;42.716;23.344;2023-08-24T07:14:09;12.90;;;8.63;;
64667;SDS011;51077;42.716;23.344;2023-08-24T07:16:34;11.20;;;7.90;;
64667;SDS011;51077;42.716;23.344;2023-08-24T07:19:00;11.10;;;8.53;;
64667;SDS011;51077;42.716;23.344;2023-08-24T07:21:25;10.67;;;8.50;;
64667;SDS011;51077;42.716;23.344;2023-08-24T07:23:50;9.07;;;8.10;;
64667;SDS011;51077;42.716;23.344;2023-08-24T07:26:16;11.07;;;7.97;;
64667;SDS011;51077;42.716;23.344;2023-08-24T07:28:41;10.53;;;8.13;;
64667;SDS011;51077;42.716;23.344;2023-08-24T07:31:07;8.33;;;7.40;;
64667;SDS011;51077;42.716;23.344;2023-08-24T07:33:39;12.13;;;8.20;;
64667;SDS011;51077;42.716;23.344;2023-08-24T07:36:05;10.20;;;8.03;;
64667;SDS011;51077;42.716;23.344;2023-08-24T07:38:30;10.90;;;7.67;;
64667;SDS011;51077;42.716;23.344;2023-08-24T07:40:56;13.77;;;8.30;;
64667;SDS011;51077;42.716;23.344;2023-08-24T07:43:22;8.47;;;7.57;;
64667;SDS011;51077;42.716;23.344;2023-08-24T07:45:48;12.83;;;7.63;;
64667;SDS011;51077;42.716;23.344;2023-08-24T07:48:13;12.87;;;7.73;;
64667;SDS011;51077;42.716;23.344;2023-08-24T07:50:39;10.30;;;8.23;;
64667;SDS011;51077;42.716;23.344;2023-08-24T07:53:04;11.53;;;8.30;;
64667;SDS011;51077;42.716;23.344;2023-08-24T07:55:30;12.67;;;6.90;;
64667;SDS011;51077;42.716;23.344;2023-08-24T07:57:55;11.23;;;7.63;;
64667;SDS011;51077;42.716;23.344;2023-08-24T08:00:20;8.97;;;6.90;;
64667;SDS011;51077;42.716;23.344;2023-08-24T08:02:50;8.53;;;7.70;;
64667;SDS011;51077;42.716;23.344;2023-08-24T08:05:16;10.07;;;8.07;;
64667;SDS011;51077;42.716;23.344;2023-08-24T08:07:42;13.27;;;7.23;;
64667;SDS011;51077;42.716;23.344;2023-08-24T08:10:08;9.00;;;7.53;;
64667;SDS011;51077;42.716;23.344;2023-08-24T08:12:34;10.33;;;7.73;;
64667;SDS011;51077;42.716;23.344;2023-08-24T08:14:59;11.27;;;7.50;;
64667;SDS011;51077;42.716;23.344;2023-08-24T08:17:25;13.60;;;7.87;;
64667;SDS011;51077;42.716;23.344;2023-08-24T08:19:56;11.47;;;7.70;;
64667;SDS011;51077;42.716;23.344;2023-08-24T08:22:22;11.23;;;7.20;;
64667;SDS011;51077;42.716;23.344;2023-08-24T08:24:48;9.33;;;7.20;;
64667;SDS011;51077;42.716;23.344;2023-08-24T08:27:14;9.77;;;7.07;;
64667;SDS011;51077;42.716;23.344;2023-08-24T08:29:40;10.87;;;6.87;;
64667;SDS011;51077;42.716;23.344;2023-08-24T08:32:05;8.17;;;7.13;;
64667;SDS011;51077;42.716;23.344;2023-08-24T08:34:31;8.43;;;6.80;;
64667;SDS011;51077;42.716;23.344;2023-08-24T08:36:57;9.53;;;6.97;;
64667;SDS011;51077;42.716;23.344;2023-08-24T08:39:22;12.00;;;7.43;;
64667;SDS011;51077;42.716;23.344;2023-08-24T08:41:48;11.23;;;7.03;;
64667;SDS011;51077;42.716;23.344;2023-08-24T08:44:14;9.60;;;6.60;;
64667;SDS011;51077;42.716;23.344;2023-08-24T08:46:41;11.57;;;6.77;;
64667;SDS011;51077;42.716;23.344;2023-08-24T08:49:08;11.80;;;6.93;;
64667;SDS011;51077;42.716;23.344;2023-08-24T08:51:37;10.83;;;7.37;;
64667;SDS011;51077;42.716;23.344;2023-08-24T08:54:03;9.40;;;7.20;;
64667;SDS011;51077;42.716;23.344;2023-08-24T08:56:30;9.83;;;8.23;;
64667;SDS011;51077;42.716;23.344;2023-08-24T08:58:56;12.27;;;7.97;;
64667;SDS011;51077;42.716;23.344;2023-08-24T09:01:25;10.73;;;7.07;;
64667;SDS011;51077;42.716;23.344;2023-08-24T09:03:51;10.63;;;7.33;;
64667;SDS011;51077;42.716;23.344;2023-08-24T09:06:18;9.23;;;7.00;;
64667;SDS011;51077;42.716;23.344;2023-08-24T09:08:44;10.57;;;6.87;;
64667;SDS011;51077;42.716;23.344;2023-08-24T09:11:10;8.87;;;6.67;;
64667;SDS011;51077;42.716;23.344;2023-08-24T09:13:36;11.63;;;7.40;;
64667;SDS011;51077;42.716;23.344;2023-08-24T09:16:07;12.40;;;7.40;;
64667;SDS011;51077;42.716;23.344;2023-08-24T09:18:37;11.27;;;6.90;;
64667;SDS011;51077;42.716;23.344;2023-08-24T09:21:13;9.87;;;7.03;;
64667;SDS011;51077;42.716;23.344;2023-08-24T09:23:58;10.17;;;7.40;;
64667;SDS011;51077;42.716;23.344;2023-08-24T09:26:36;10.83;;;7.30;;
64667;SDS011;51077;42.716;23.344;2023-08-24T09:29:14;10.43;;;7.53;;
64667;SDS011;51077;42.716;23.344;2023-08-24T09:31:40;12.67;;;7.53;;
64667;SDS011;51077;42.716;23.344;2023-08-24T09:34:09;8.00;;;7.13;;
64667;SDS011;51077;42.716;23.344;2023-08-24T09:36:35;9.03;;;6.93;;
64667;SDS011;51077;42.716;23.344;2023-08-24T09:39:02;10.70;;;7.60;;
64667;SDS011;51077;42.716;23.344;2023-08-24T09:44:10;8.27;;;7.43;;
64667;SDS011;51077;42.716;23.344;2023-08-24T09:46:37;10.57;;;8.07;;
64667;SDS011;51077;42.716;23.344;2023-08-24T09:49:04;11.23;;;7.50;;
64667;SDS011;51077;42.716;23.344;2023-08-24T09:51:31;9.67;;;6.90;;
64667;SDS011;51077;42.716;23.344;2023-08-24T09:53:58;8.77;;;7.97;;
64667;SDS011;51077;42.716;23.344;2023-08-24T09:56:28;8.57;;;7.50;;
64667;SDS011;51077;42.716;23.344;2023-08-24T09:58:54;9.90;;;7.90;;
64667;SDS011;51077;42.716;23.344;2023-08-24T10:01:23;11.00;;;7.67;;
64667;SDS011;51077;42.716;23.344;2023-08-24T10:03:50;8.87;;;7.87;;
64667;SDS011;51077;42.716;23.344;2023-08-24T10:06:21;8.90;;;7.70;;
64667;SDS011;51077;42.716;23.344;2023-08-24T10:08:50;9.17;;;8.20;;
64667;SDS011;51077;42.716;23.344;2023-08-24T10:11:26;9.57;;;7.87;;
64667;SDS011;51077;42.716;23.344;2023-08-24T10:13:57;8.37;;;7.47;;
64667;SDS011;51077;42.716;23.344;2023-08-24T10:16:33;8.17;;;7.37;;
64667;SDS011;51077;42.716;23.344;2023-08-24T10:19:00;10.33;;;7.60;;
64667;SDS011;51077;42.716;23.344;2023-08-24T10:21:28;8.37;;;7.57;;
64667;SDS011;51077;42.716;23.344;2023-08-24T10:23:54;10.67;;;7.80;;
64667;SDS011;51077;42.716;23.344;2023-08-24T10:26:22;8.97;;;6.93;;
64667;SDS011;51077;42.716;23.344;2023-08-24T10:28:49;8.83;;;6.93;;
64667;SDS011;51077;42.716;23.344;2023-08-24T10:31:16;7.27;;;6.57;;
64667;SDS011;51077;42.716;23.344;2023-08-24T10:33:41;8.17;;;7.37;;
64667;SDS011;51077;42.716;23.344;2023-08-24T10:36:10;7.70;;;6.90;;
64667;SDS011;51077;42.716;23.344;2023-08-24T10:38:41;10.90;;;7.23;;
64667;SDS011;51077;42.716;23.344;2023-08-24T10:41:07;8.10;;;7.30;;
64667;SDS011;51077;42.716;23.344;2023-08-24T10:43:48;8.33;;;7.17;;
64667;SDS011;51077;42.716;23.344;2023-08-24T10:46:15;13.27;;;7.87;;
64667;SDS011;51077;42.716;23.344;2023-08-24T10:54:06;9.47;;;6.97;;
64667;SDS011;51077;42.716;23.344;2023-08-24T10:56:36;11.83;;;7.57;;
64667;SDS011;51077;42.716;23.344;2023-08-24T10:59:12;7.63;;;6.87;;
64667;SDS011;51077;42.716;23.344;2023-08-24T11:02:03;7.40;;;6.60;;
64667;SDS011;51077;42.716;23.344;2023-08-24T11:04:29;11.37;;;7.50;;
64667;SDS011;51077;42.716;23.344;2023-08-24T11:06:58;6.97;;;6.00;;
64667;SDS011;51077;42.716;23.344;2023-08-24T11:09:26;8.13;;;6.87;;
64667;SDS011;51077;42.716;23.344;2023-08-24T11:12:11;7.63;;;6.33;;
64667;SDS011;51077;42.716;23.344;2023-08-24T11:14:48;8.37;;;6.47;;
64667;SDS011;51077;42.716;23.344;2023-08-24T11:17:19;7.73;;;6.20;;
64667;SDS011;51077;42.716;23.344;2023-08-24T11:19:52;7.10;;;6.30;;
64667;SDS011;51077;42.716;23.344;2023-08-24T11:22:19;6.70;;;6.10;;
64667;SDS011;51077;42.716;23.344;2023-08-24T11:24:46;9.93;;;6.60;;
64667;SDS011;51077;42.716;23.344;2023-08-24T11:27:12;9.77;;;6.20;;
64667;SDS011;51077;42.716;23.344;2023-08-24T11:29:37;8.00;;;6.47;;
64667;SDS011;51077;42.716;23.344;2023-08-24T11:32:03;7.10;;;6.40;;
64667;SDS011;51077;42.716;23.344;2023-08-24T11:34:29;7.70;;;6.70;;
64667;SDS011;51077;42.716;23.344;2023-08-24T11:36:55;10.13;;;5.73;;
64667;SDS011;51077;42.716;23.344;2023-08-24T11:39:21;7.03;;;6.30;;
64667;SDS011;51077;42.716;23.344;2023-08-24T11:44:28;7.83;;;6.30;;
64667;SDS011;51077;42.716;23.344;2023-08-24T11:46:57;7.77;;;6.50;;
64667;SDS011;51077;42.716;23.344;2023-08-24T11:49:23;9.00;;;6.47;;
64667;SDS011;51077;42.716;23.344;2023-08-24T11:51:50;7.63;;;6.40;;
64667;SDS011;51077;42.716;23.344;2023-08-24T11:54:16;8.93;;;6.57;;
64667;SDS011;51077;42.716;23.344;2023-08-24T11:56:44;10.50;;;6.30;;
64667;SDS011;51077;42.716;23.344;2023-08-24T11:59:14;9.67;;;6.30;;
64667;SDS011;51077;42.716;23.344;2023-08-24T12:01:42;7.57;;;6.10;;
64667;SDS011;51077;42.716;23.344;2023-08-24T12:04:08;7.60;;;6.80;;
64667;SDS011;51077;42.716;23.344;2023-08-24T12:06:33;11.60;;;7.17;;
64667;SDS011;51077;42.716;23.344;2023-08-24T12:08:59;9.00;;;6.87;;
64667;SDS011;51077;42.716;23.344;2023-08-24T12:11:25;8.03;;;7.03;;
64667;SDS011;51077;42.716;23.344;2023-08-24T12:13:52;11.50;;;6.50;;
64667;SDS011;51077;42.716;23.344;2023-08-24T12:16:19;9.00;;;6.67;;
64667;SDS011;51077;42.716;23.344;2023-08-24T12:18:53;7.27;;;6.57;;
64667;SDS011;51077;42.716;23.344;2023-08-24T12:21:20;8.95;;;6.82;;
64667;SDS011;51077;42.716;23.344;2023-08-24T12:23:56;8.73;;;7.27;;
64667;SDS011;51077;42.716;23.344;2023-08-24T12:26:28;12.23;;;7.57;;
64667;SDS011;51077;42.716;23.344;2023-08-24T12:29:01;10.50;;;7.50;;
64667;SDS011;51077;42.716;23.344;2023-08-24T12:31:30;15.60;;;7.43;;
64667;SDS011;51077;42.716;23.344;2023-08-24T12:34:00;11.57;;;7.17;;
64667;SDS011;51077;42.716;23.344;2023-08-24T12:36:25;9.93;;;6.93;;
64667;SDS011;51077;42.716;23.344;2023-08-24T12:38:51;11.13;;;7.20;;
64667;SDS011;51077;42.716;23.344;2023-08-24T12:41:16;10.63;;;6.93;;
64667;SDS011;51077;42.716;23.344;2023-08-24T12:43:42;10.07;;;7.30;;
64667;SDS011;51077;42.716;23.344;2023-08-24T12:46:07;11.13;;;7.73;;
64667;SDS011;51077;42.716;23.344;2023-08-24T12:48:34;9.20;;;6.77;;
64667;SDS011;51077;42.716;23.344;2023-08-24T12:51:00;11.73;;;7.70;;
64667;SDS011;51077;42.716;23.344;2023-08-24T12:53:25;12.70;;;7.67;;
64667;SDS011;51077;42.716;23.344;2023-08-24T12:55:51;8.33;;;7.50;;
64667;SDS011;51077;42.716;23.344;2023-08-24T12:58:16;9.60;;;7.20;;
64667;SDS011;51077;42.716;23.344;2023-08-24T13:00:43;10.47;;;7.40;;
64667;SDS011;51077;42.716;23.344;2023-08-24T13:03:09;12.87;;;8.47;;
64667;SDS011;51077;42.716;23.344;2023-08-24T13:05:34;8.23;;;7.23;;
64667;SDS011;51077;42.716;23.344;2023-08-24T13:08:00;9.47;;;7.43;;
64667;SDS011;51077;42.716;23.344;2023-08-24T13:10:25;10.20;;;7.57;;
64667;SDS011;51077;42.716;23.344;2023-08-24T13:12:51;8.00;;;7.20;;
64667;SDS011;51077;42.716;23.344;2023-08-24T13:15:16;10.83;;;7.00;;
64667;SDS011;51077;42.716;23.344;2023-08-24T13:17:41;7.20;;;6.50;;
64667;SDS011;51077;42.716;23.344;2023-08-24T13:20:07;10.10;;;7.43;;
64667;SDS011;51077;42.716;23.344;2023-08-24T13:22:33;7.70;;;6.90;;
64667;SDS011;51077;42.716;23.344;2023-08-24T13:24:58;7.90;;;7.00;;
64667;SDS011;51077;42.716;23.344;2023-08-24T13:27:24;8.00;;;6.90;;
64667;SDS011;51077;42.716;23.344;2023-08-24T13:29:49;8.77;;;7.00;;
64667;SDS011;51077;42.716;23.344;2023-08-24T13:32:15;8.40;;;7.17;;
64667;SDS011;51077;42.716;23.344;2023-08-24T13:34:40;12.60;;;7.70;;
64667;SDS011;51077;42.716;23.344;2023-08-24T13:37:05;10.60;;;7.63;;
64667;SDS011;51077;42.716;23.344;2023-08-24T13:39:31;10.20;;;7.40;;
64667;SDS011;51077;42.716;23.344;2023-08-24T13:41:57;10.13;;;6.90;;
64667;SDS011;51077;42.716;23.344;2023-08-24T13:44:23;8.30;;;6.80;;
64667;SDS011;51077;42.716;23.344;2023-08-24T13:46:49;10.13;;;7.53;;
64667;SDS011;51077;42.716;23.344;2023-08-24T13:49:15;11.70;;;7.40;;
64667;SDS011;51077;42.716;23.344;2023-08-24T13:51:40;14.03;;;6.60;;
64667;SDS011;51077;42.716;23.344;2023-08-24T13:54:15;8.47;;;7.40;;
64667;SDS011;51077;42.716;23.344;2023-08-24T13:56:45;10.87;;;7.63;;
64667;SDS011;51077;42.716;23.344;2023-08-24T13:59:12;9.33;;;7.37;;
64667;SDS011;51077;42.716;23.344;2023-08-24T14:01:38;9.87;;;7.33;;
64667;SDS011;51077;42.716;23.344;2023-08-24T14:04:04;11.03;;;7.67;;
64667;SDS011;51077;42.716;23.344;2023-08-24T14:06:30;11.23;;;7.83;;
64667;SDS011;51077;42.716;23.344;2023-08-24T14:08:58;10.80;;;7.97;;
64667;SDS011;51077;42.716;23.344;2023-08-24T14:11:24;12.23;;;8.23;;
64667;SDS011;51077;42.716;23.344;2023-08-24T14:13:50;9.10;;;7.13;;
64667;SDS011;51077;42.716;23.344;2023-08-24T14:16:16;10.23;;;7.30;;
64667;SDS011;51077;42.716;23.344;2023-08-24T14:18:42;10.93;;;7.53;;
64667;SDS011;51077;42.716;23.344;2023-08-24T14:21:08;9.23;;;7.33;;
64667;SDS011;51077;42.716;23.344;2023-08-24T14:23:35;15.23;;;7.33;;
64667;SDS011;51077;42.716;23.344;2023-08-24T14:26:01;13.03;;;7.50;;
64667;SDS011;51077;42.716;23.344;2023-08-24T14:28:26;8.60;;;6.70;;
64667;SDS011;51077;42.716;23.344;2023-08-24T14:31:16;9.77;;;7.33;;
64667;SDS011;51077;42.716;23.344;2023-08-24T14:33:42;10.33;;;7.10;;
64667;SDS011;51077;42.716;23.344;2023-08-24T14:36:07;8.63;;;7.20;;